Time;durP1;ratioP1;P1;durP2;ratioP2;P2;SDS_P1;SDS_P2;PMS_P1;PMS_P2;Temp;Humidity;BMP_temperature;BMP_pressure;BME280_temperature;BME280_humidity;BME280_pressure;Samples;Min_cycle;Max_cycle;Signal;HPM_P1;HPM_P2
2022/09/08 03:35:11;;;;;;;18.00;5.20;;;;;;;9.28;61.92;99813.91;31628;1316;3027475;-61
2022/09/08 03:37:41;;;;;;;27.50;10.00;;;;;;;9.47;61.43;99810.36;24990;1316;3026478;-63
2022/09/08 03:40:11;;;;;;;18.40;6.80;;;;;;;9.56;61.35;99813.26;25095;1316;3026786;-63
2022/09/08 03:42:41;;;;;;;23.90;7.00;;;;;;;9.55;61.48;99815.36;25106;1316;3030203;-62
2022/09/08 03:45:13;;;;;;;17.60;5.90;;;;;;;9.63;61.27;99817.61;25000;1316;3026553;-58
2022/09/08 03:47:42;;;;;;;21.80;7.50;;;;;;;9.61;61.29;99815.06;24330;1316;4649245;-62
2022/09/08 03:50:12;;;;;;;20.50;7.40;;;;;;;9.61;61.32;99814.89;25118;1315;3026876;-59
2022/09/08 03:52:42;;;;;;;35.70;7.00;;;;;;;9.65;61.28;99813.66;25086;1316;3028569;-60
2022/09/08 03:55:12;;;;;;;23.50;6.50;;;;;;;9.74;61.21;99813.38;25111;1315;3026923;-61
2022/09/08 03:57:41;;;;;;;21.00;6.30;;;;;;;9.80;60.92;99817.09;25194;1316;3026964;-62
2022/09/08 04:00:11;;;;;;;23.20;6.70;;;;;;;9.87;60.68;99815.48;25050;1313;3026309;-60
2022/09/08 04:11:38;;;;;;;41.00;8.10;;;;;;;10.04;60.93;99810.41;31475;1319;3026202;-62
2022/09/08 04:14:07;;;;;;;33.90;9.10;;;;;;;10.21;60.53;99803.73;24883;1322;3026766;-62
2022/09/08 04:16:36;;;;;;;31.20;7.50;;;;;;;10.48;59.72;99808.77;24926;1322;3026223;-59
2022/09/08 04:19:06;;;;;;;25.60;7.10;;;;;;;10.38;59.87;99809.69;24952;1319;3048804;-62
2022/09/08 04:21:35;;;;;;;21.70;6.80;;;;;;;10.30;60.21;99807.29;25080;1319;3026899;-62
2022/09/08 04:24:02;;;;;;;20.20;6.80;;;;;;;10.32;60.04;99812.27;24291;1316;3070545;-62
2022/09/08 04:26:31;;;;;;;25.50;7.50;;;;;;;10.21;60.48;99815.44;25095;1315;3026509;-66
2022/09/08 04:29:01;;;;;;;23.90;6.00;;;;;;;10.30;60.60;99816.76;25133;1316;3026858;-63
2022/09/08 04:31:31;;;;;;;23.20;6.70;;;;;;;10.35;60.42;99813.52;25047;1316;3027205;-62
2022/09/08 04:34:02;;;;;;;17.20;6.20;;;;;;;10.42;60.03;99818.07;25088;1316;3026636;-62
2022/09/08 04:36:31;;;;;;;22.60;6.20;;;;;;;10.40;60.25;99820.42;25109;1316;3026506;-59
2022/09/08 04:39:00;;;;;;;20.10;6.20;;;;;;;10.52;59.75;99822.43;25049;1316;3026101;-63
2022/09/08 04:41:30;;;;;;;19.40;6.30;;;;;;;10.50;60.00;99825.66;25129;1315;3056280;-66
2022/09/08 04:44:01;;;;;;;17.20;6.20;;;;;;;10.66;59.32;99821.63;25049;1315;3027430;-63
2022/09/08 04:46:31;;;;;;;21.40;6.80;;;;;;;10.66;59.39;99825.15;25072;1316;3026668;-63
2022/09/08 04:49:00;;;;;;;19.30;6.90;;;;;;;10.65;59.53;99830.14;25078;1316;3027130;-63
2022/09/08 04:51:29;;;;;;;13.90;6.40;;;;;;;10.66;59.72;99837.41;25007;1316;3028439;-62
2022/09/08 04:53:59;;;;;;;11.40;5.70;;;;;;;10.69;59.19;99833.91;25029;1316;3053334;-64
2022/09/08 04:56:28;;;;;;;16.30;6.00;;;;;;;10.82;58.89;99834.05;25086;1316;3026356;-63
2022/09/08 04:58:58;;;;;;;19.30;6.10;;;;;;;10.89;58.67;99839.33;25041;1316;3026723;-63
2022/09/08 05:01:30;;;;;;;18.90;5.80;;;;;;;10.92;59.15;99830.52;25136;1316;3052635;-61
2022/09/08 05:04:00;;;;;;;13.40;5.20;;;;;;;11.00;58.58;99828.16;25033;1316;3026645;-62
2022/09/08 05:06:33;;;;;;;12.90;4.90;;;;;;;11.19;57.33;99831.27;25039;1316;3026846;-63
2022/09/08 05:09:02;;;;;;;17.90;4.50;;;;;;;11.26;57.45;99830.18;25090;1315;3026453;-62
2022/09/08 05:11:33;;;;;;;12.00;4.30;;;;;;;11.36;56.81;99827.00;25112;1316;3026587;-65
2022/09/08 05:14:03;;;;;;;11.90;4.10;;;;;;;11.49;56.63;99828.55;25086;1316;3026768;-63
2022/09/08 05:16:32;;;;;;;18.80;4.40;;;;;;;11.59;56.22;99833.36;25070;1316;3026376;-60
2022/09/08 05:19:02;;;;;;;13.00;4.40;;;;;;;11.68;56.57;99828.13;25025;1316;3026221;-62
2022/09/08 05:21:34;;;;;;;15.10;4.50;;;;;;;11.85;56.57;99825.50;25044;1316;3054032;-63
2022/09/08 05:24:04;;;;;;;11.10;4.80;;;;;;;11.99;56.24;99824.32;25073;1316;3026263;-62
2022/09/08 05:26:33;;;;;;;11.90;5.20;;;;;;;12.07;55.91;99821.77;25082;1315;3027047;-61
2022/09/08 05:29:05;;;;;;;12.00;4.60;;;;;;;12.12;55.88;99824.10;25036;1316;3028078;-62
2022/09/08 05:31:34;;;;;;;18.30;4.80;;;;;;;12.21;55.78;99818.12;25076;1316;3026431;-63
2022/09/08 05:34:03;;;;;;;13.20;4.70;;;;;;;12.31;55.87;99818.73;25042;1316;3028165;-63
2022/09/08 05:36:34;;;;;;;13.50;5.20;;;;;;;12.44;55.57;99818.08;25038;1316;3053657;-63
2022/09/08 05:39:04;;;;;;;10.20;4.40;;;;;;;12.53;55.73;99819.82;25082;1316;3026496;-62
2022/09/08 05:41:33;;;;;;;16.20;5.20;;;;;;;12.67;55.63;99815.25;25141;1315;3028750;-60
2022/09/08 05:44:02;;;;;;;9.50;4.00;;;;;;;12.80;55.64;99819.13;25019;1316;3026891;-62
2022/09/08 05:46:57;;;;;;;;;;;;;;;12.99;55.54;99820.92;25018;1316;3050613;-60
2022/09/08 05:49:26;;;;;;;10.60;4.40;;;;;;;13.09;55.37;99825.89;25015;1316;3026414;-64
2022/09/08 05:51:56;;;;;;;11.30;4.40;;;;;;;13.25;55.47;99823.80;25073;1316;3026937;-62
2022/09/08 05:54:26;;;;;;;8.40;3.40;;;;;;;13.39;55.14;99824.13;25079;1316;3025885;-62
2022/09/08 05:56:56;;;;;;;11.60;4.40;;;;;;;13.56;54.63;99825.95;25004;1316;3069093;-64
2022/09/08 05:59:25;;;;;;;13.60;3.90;;;;;;;13.67;54.52;99827.71;25047;1315;3026812;-62
2022/09/08 06:01:54;;;;;;;9.40;3.50;;;;;;;13.76;54.12;99829.55;25077;1315;3026868;-63
2022/09/08 06:04:23;;;;;;;13.40;3.80;;;;;;;13.90;54.08;99830.71;25018;1316;3070470;-62
2022/09/08 06:06:52;;;;;;;8.20;3.70;;;;;;;14.05;53.97;99829.67;25078;1315;3026390;-63
2022/09/08 06:09:25;;;;;;;14.10;4.40;;;;;;;14.14;53.44;99828.89;25064;1316;3053043;-65
2022/09/08 06:11:54;;;;;;;9.90;3.30;;;;;;;14.09;53.27;99831.17;25068;1316;3027028;-63
2022/09/08 06:14:23;;;;;;;12.20;3.90;;;;;;;14.20;53.01;99827.59;25038;1316;3055003;-63
2022/09/08 06:16:54;;;;;;;13.00;4.00;;;;;;;14.32;52.20;99826.29;25086;1316;3026816;-64
2022/09/08 06:19:23;;;;;;;8.20;4.50;;;;;;;14.38;51.89;99825.63;25059;1316;3026034;-63
2022/09/08 06:21:53;;;;;;;11.70;4.40;;;;;;;14.40;51.93;99823.77;25030;1316;3028617;-64
2022/09/08 06:24:21;;;;;;;11.00;3.90;;;;;;;14.44;51.56;99827.52;25066;1316;3050147;-62
2022/09/08 06:27:03;;;;;;;9.20;4.40;;;;;;;14.52;51.03;99829.41;25015;1315;3026429;-62
2022/09/08 06:29:50;;;;;;;9.30;4.20;;;;;;;14.61;51.19;99831.97;25076;1315;3055725;-64
2022/09/08 06:32:19;;;;;;;13.00;4.10;;;;;;;14.69;50.82;99835.49;25090;1316;3055819;-61
2022/09/08 06:34:55;;;;;;;12.30;3.90;;;;;;;14.79;51.01;99827.38;25022;1315;3026213;-63
2022/09/08 06:37:29;;;;;;;9.50;3.60;;;;;;;14.83;50.84;99827.59;25093;1316;3049739;-62
2022/09/08 06:40:06;;;;;;;12.60;4.10;;;;;;;14.90;50.44;99829.75;25036;1316;3053176;-60
2022/09/08 06:42:49;;;;;;;11.80;3.80;;;;;;;15.00;50.75;99827.61;25004;1315;3053229;-65
2022/09/08 06:45:22;;;;;;;10.90;3.80;;;;;;;15.12;50.35;99826.55;25037;1318;3056709;-65
2022/09/08 06:48:05;;;;;;;11.30;3.90;;;;;;;15.10;50.08;99825.98;25034;1315;3027187;-64
2022/09/08 06:50:35;;;;;;;10.90;4.10;;;;;;;15.22;49.40;99826.72;25039;1316;3055801;-61
2022/09/08 06:53:06;;;;;;;11.70;3.70;;;;;;;15.32;50.28;99822.23;25069;1319;3028068;-60
2022/09/08 06:55:59;;;;;;;13.20;4.10;;;;;;;15.56;49.53;99827.17;25094;1319;3026537;-62
2022/09/08 06:58:31;;;;;;;7.50;3.00;;;;;;;15.78;48.47;99827.84;25069;1315;3053515;-64
2022/09/08 07:01:21;;;;;;;6.00;3.20;;;;;;;15.94;47.41;99823.39;25085;1315;3026502;-62
2022/09/08 07:03:53;;;;;;;9.40;3.40;;;;;;;16.07;46.61;99831.63;25046;1316;3055121;-63
2022/09/08 07:06:33;;;;;;;7.50;2.80;;;;;;;16.12;44.88;99837.41;25133;1316;3026868;-61
2022/09/08 07:09:27;;;;;;;5.60;3.10;;;;;;;16.12;45.01;99833.00;25011;1315;3051360;-61
2022/09/08 07:12:06;;;;;;;;;;;;;;;16.29;44.23;99845.74;25091;1316;3055807;-63
2022/09/08 07:15:16;;;;;;;9.60;3.80;;;;;;;16.34;43.52;99841.17;25028;1316;3053157;-62
2022/09/08 07:17:52;;;;;;;5.90;2.90;;;;;;;16.43;42.67;99838.48;25146;1315;3069520;-62
2022/09/08 07:20:23;;;;;;;11.20;3.60;;;;;;;16.52;42.21;99838.83;25061;1316;3049276;-62
2022/09/08 07:23:01;;;;;;;7.50;3.80;;;;;;;16.59;41.51;99838.13;25118;1316;3026142;-63
2022/09/08 07:25:47;;;;;;;6.40;3.30;;;;;;;16.67;40.99;99829.15;24984;1319;3052721;-62
2022/09/08 07:28:21;;;;;;;11.10;3.90;;;;;;;16.77;41.08;99837.94;25086;1316;3059359;-62
2022/09/08 07:30:56;;;;;;;8.10;3.40;;;;;;;16.76;40.81;99832.52;25098;1316;3050216;-63
2022/09/08 07:33:38;;;;;;;13.70;3.70;;;;;;;16.84;40.71;99832.57;25130;1315;3053157;-64
2022/09/08 07:36:20;;;;;;;11.30;3.50;;;;;;;16.75;39.71;99833.63;25027;1318;3050235;-64
2022/09/08 07:38:52;;;;;;;10.10;3.80;;;;;;;16.87;40.28;99831.98;25100;1316;3071636;-62
2022/09/08 07:41:36;;;;;;;12.80;3.80;;;;;;;17.06;40.18;99830.11;25015;1315;3026526;-63
2022/09/08 07:44:07;;;;;;;;;;;;;;;17.26;39.63;99841.58;25086;1315;3055307;-63
2022/09/08 07:46:43;;;;;;;8.50;3.80;;;;;;;17.20;39.28;99848.11;25017;1315;3026260;-64
2022/09/08 07:49:22;;;;;;;15.80;4.60;;;;;;;17.25;39.25;99843.13;24982;1315;3057791;-60
2022/09/08 07:52:06;;;;;;;8.60;3.70;;;;;;;17.28;39.21;99824.08;25064;1315;3052968;-62
2022/09/08 07:54:53;;;;;;;8.90;3.90;;;;;;;17.41;39.44;99817.04;25067;1318;3055179;-63
2022/09/08 07:57:41;;;;;;;9.50;3.80;;;;;;;17.54;39.45;99820.55;25057;1319;3054612;-62
2022/09/08 08:00:12;;;;;;;12.90;3.90;;;;;;;17.60;39.74;99821.60;25075;1317;3070923;-60
2022/09/08 08:02:44;;;;;;;17.30;4.10;;;;;;;17.57;39.49;99813.58;25085;1315;3026519;-62
2022/09/08 08:05:18;;;;;;;9.40;3.80;;;;;;;17.67;39.31;99809.91;25102;1315;3026125;-63
2022/09/08 08:08:10;;;;;;;10.60;3.70;;;;;;;17.84;39.53;99806.63;25003;1318;3055669;-63
2022/09/08 08:11:14;;;;;;;10.30;4.00;;;;;;;17.93;38.91;99799.11;25028;1316;3058953;-63
2022/09/08 08:13:56;;;;;;;5.40;3.20;;;;;;;18.12;38.92;99794.02;25027;1316;3052398;-63
2022/09/08 08:16:33;;;;;;;8.90;3.40;;;;;;;18.22;37.73;99791.66;25024;1315;3056093;-63
2022/09/08 08:19:28;;;;;;;11.90;3.90;;;;;;;18.33;36.88;99788.64;25041;1318;3050704;-63
2022/09/08 08:22:14;;;;;;;8.70;3.40;;;;;;;18.41;35.53;99794.12;24959;1322;3071015;-60
2022/09/08 08:25:21;;;;;;;7.10;3.30;;;;;;;18.45;33.53;99791.95;24977;1319;3049144;-63
2022/09/08 08:28:14;;;;;;;6.50;3.30;;;;;;;18.56;33.32;99791.23;25025;1316;3055431;-65
2022/09/08 08:31:13;;;;;;;6.00;2.80;;;;;;;18.69;32.79;99792.73;25011;1316;3052274;-62
2022/09/08 08:34:01;;;;;;;7.70;2.90;;;;;;;18.80;32.08;99779.80;25031;1316;3058967;-63
2022/09/08 08:36:32;;;;;;;7.20;3.70;;;;;;;18.87;31.98;99785.45;25018;1315;3049673;-63
2022/09/08 08:39:16;;;;;;;8.70;3.70;;;;;;;18.84;31.43;99781.99;24985;1316;3026684;-63
2022/09/08 08:41:46;;;;;;;12.60;3.90;;;;;;;18.89;32.13;99771.23;25036;1316;3051717;-62
2022/09/08 08:44:17;;;;;;;8.70;3.70;;;;;;;18.97;32.30;99771.64;24994;1315;3028210;-63
2022/09/08 08:47:18;;;;;;;11.30;3.80;;;;;;;19.05;31.55;99789.91;25045;1315;3054674;-63
2022/09/08 08:50:02;;;;;;;10.80;3.70;;;;;;;19.06;30.69;99777.53;24999;1316;3054148;-62
2022/09/08 08:52:36;;;;;;;;;;;;;;;19.11;30.61;99768.02;25006;1316;3071066;-64
2022/09/08 08:55:19;;;;;;;13.10;3.60;;;;;;;19.15;30.99;99761.80;24977;1318;3051942;-61
2022/09/08 08:58:24;;;;;;;8.00;3.80;;;;;;;19.22;30.27;99755.34;25050;1319;3055063;-62
2022/09/08 09:00:52;;;;;;;10.30;3.20;;;;;;;19.16;30.68;99762.27;24932;1316;3051385;-61
2022/09/08 09:03:24;;;;;;;10.50;3.50;;;;;;;19.23;30.72;99748.80;25031;1315;3026325;-62
2022/09/08 09:06:13;;;;;;;5.90;3.10;;;;;;;19.25;30.02;99745.08;25013;1315;3056298;-64
2022/09/08 09:09:03;;;;;;;11.30;3.60;;;;;;;19.27;29.80;99748.05;25011;1319;3054847;-63
2022/09/08 09:11:51;;;;;;;6.90;3.20;;;;;;;19.31;29.24;99748.08;25042;1315;3059087;-62
2022/09/08 09:14:34;;;;;;;6.50;2.80;;;;;;;19.41;29.59;99745.34;25110;1315;3049933;-62
2022/09/08 09:17:22;;;;;;;5.20;3.30;;;;;;;19.63;29.92;99747.07;25067;1315;3053289;-62
2022/09/08 09:19:56;;;;;;;5.50;2.80;;;;;;;19.71;29.27;99744.02;25109;1316;3054741;-61
2022/09/08 09:22:32;;;;;;;10.10;2.90;;;;;;;19.74;29.24;99750.83;25063;1316;3070836;-63
2022/09/08 09:25:34;;;;;;;7.30;2.70;;;;;;;19.70;29.03;99748.77;25020;1318;3051002;-61
2022/09/08 09:28:24;;;;;;;10.70;3.00;;;;;;;19.75;28.95;99747.73;25063;1316;3054727;-64
2022/09/08 09:31:10;;;;;;;6.20;3.00;;;;;;;19.83;28.15;99750.56;25114;1315;3055705;-62
2022/09/08 09:34:17;;;;;;;8.70;3.30;;;;;;;19.84;28.82;99741.55;25166;1315;3058970;-64
2022/09/08 09:37:06;;;;;;;6.50;3.00;;;;;;;20.05;27.93;99744.23;25094;1315;3052506;-64
2022/09/08 09:39:48;;;;;;;5.40;3.20;;;;;;;20.19;28.41;99749.80;25145;1315;3055248;-64
2022/09/08 09:42:30;;;;;;;8.60;3.20;;;;;;;20.20;28.47;99751.52;25225;1316;3050445;-62
2022/09/08 09:45:14;;;;;;;8.60;3.10;;;;;;;20.24;28.06;99755.35;25875;1316;3067453;-63
2022/09/08 09:47:53;;;;;;;6.20;3.20;;;;;;;20.32;27.96;99750.48;25907;1315;3049596;-61
2022/09/08 09:50:37;;;;;;;6.10;3.00;;;;;;;20.36;28.13;99749.08;25887;1315;3051928;-63
2022/09/08 09:53:34;;;;;;;5.10;2.80;;;;;;;20.63;27.82;99743.07;25242;1316;3052093;-61
2022/09/08 09:56:23;;;;;;;10.60;3.00;;;;;;;20.61;27.45;99748.37;25046;1316;3058624;-61
2022/09/08 09:59:17;;;;;;;13.30;3.30;;;;;;;20.54;27.87;99762.27;25094;1316;3049787;-61
2022/09/08 10:02:06;;;;;;;6.90;3.60;;;;;;;20.46;27.81;99761.71;25140;1315;3055294;-62
2022/09/08 10:05:14;;;;;;;10.80;2.60;;;;;;;20.51;27.62;99755.93;25029;1316;3051795;-60
2022/09/08 10:08:14;;;;;;;7.90;3.60;;;;;;;20.75;27.94;99758.21;25032;1315;3071526;-62
2022/09/08 10:11:02;;;;;;;7.50;3.40;;;;;;;20.70;28.00;99761.60;25037;1319;3052127;-62
2022/09/08 10:13:55;;;;;;;6.60;3.30;;;;;;;20.62;28.18;99763.76;25057;1316;3051613;-63
2022/09/08 10:17:02;;;;;;;14.90;3.60;;;;;;;20.85;27.84;99757.60;25042;1316;3054894;-62
2022/09/08 10:20:10;;;;;;;9.00;3.80;;;;;;;20.92;27.66;99761.77;25118;1314;3056968;-62
2022/09/08 10:22:51;;;;;;;6.10;2.80;;;;;;;21.17;27.00;99750.73;25071;1316;3051559;-61
2022/09/08 10:25:43;;;;;;;10.50;3.50;;;;;;;21.37;26.74;99751.50;25155;1316;3055442;-62
2022/09/08 10:28:50;;;;;;;10.20;3.10;;;;;;;21.34;27.16;99755.94;25113;1315;3054396;-63
2022/09/08 10:31:23;;;;;;;9.40;2.70;;;;;;;21.54;27.24;99751.12;24796;1324;3068331;-61
2022/09/08 10:34:14;;;;;;;6.40;2.90;;;;;;;21.59;27.05;99752.23;24852;1322;3026221;-61
2022/09/08 10:36:49;;;;;;;8.90;3.00;;;;;;;21.63;26.53;99749.12;24988;1316;3054936;-61
2022/09/08 10:39:32;;;;;;;7.70;3.00;;;;;;;21.41;27.21;99754.52;25040;1316;3055091;-62
2022/09/08 10:42:26;;;;;;;7.60;3.50;;;;;;;21.09;28.15;99756.98;25012;1315;3059290;-60
2022/09/08 10:45:13;;;;;;;9.60;3.00;;;;;;;21.21;27.93;99760.48;25090;1315;3050166;-60
2022/09/08 10:48:04;;;;;;;6.10;2.30;;;;;;;21.25;28.08;99761.50;25183;1316;3056051;-60
2022/09/08 10:50:35;;;;;;;8.30;3.10;;;;;;;21.37;27.63;99761.73;25035;1316;3053781;-61
2022/09/08 10:53:29;;;;;;;7.40;3.00;;;;;;;21.60;27.66;99756.88;25049;1318;3026871;-63
2022/09/08 10:56:27;;;;;;;7.90;2.80;;;;;;;21.60;27.68;99763.09;25188;1316;3052530;-61
2022/09/08 10:59:34;;;;;;;5.30;2.70;;;;;;;21.39;27.38;99763.98;25087;1316;3050543;-62
2022/09/08 11:02:09;;;;;;;4.60;2.20;;;;;;;21.45;27.66;99756.63;25110;1316;3069644;-61
2022/09/08 11:04:40;;;;;;;;;;;;;;;21.25;28.22;99763.11;25095;1316;3048941;-62
2022/09/08 11:07:14;;;;;;;5.00;2.30;;;;;;;21.03;28.53;99765.13;25076;1316;3026846;-60
2022/09/08 11:09:46;;;;;;;9.00;2.60;;;;;;;20.85;28.51;99762.77;25041;1316;3026662;-61
2022/09/08 11:13:00;;;;;;;6.80;3.10;;;;;;;20.58;29.09;99753.67;25050;1315;3027000;-61
2022/09/08 11:16:07;;;;;;;6.50;2.50;;;;;;;20.72;29.29;99760.01;25004;1316;3054826;-63
2022/09/08 11:18:47;;;;;;;8.40;2.40;;;;;;;20.59;29.18;99758.73;25086;1316;3056069;-62
2022/09/08 11:21:24;;;;;;;7.80;2.00;;;;;;;20.60;29.31;99764.13;25083;1316;3053603;-61
2022/09/08 11:24:02;;;;;;;9.40;2.80;;;;;;;20.62;29.41;99758.38;25025;1316;3069346;-60
2022/09/08 11:26:40;;;;;;;5.20;2.70;;;;;;;20.39;29.88;99761.60;25038;1316;3048578;-59
2022/09/08 11:29:12;;;;;;;4.10;2.20;;;;;;;20.42;29.76;99760.88;25069;1316;3051367;-63
2022/09/08 11:32:25;;;;;;;5.90;2.70;;;;;;;20.46;29.63;99752.50;25115;1314;3026940;-59
2022/09/08 11:35:33;;;;;;;5.90;2.50;;;;;;;20.54;29.57;99745.02;25040;1316;3057289;-61
2022/09/08 11:38:02;;;;;;;8.40;2.40;;;;;;;20.54;29.68;99736.11;25027;1316;3050338;-62
2022/09/08 11:40:46;;;;;;;10.90;3.40;;;;;;;20.50;29.91;99738.95;25053;1316;3027590;-62
2022/09/08 11:43:33;;;;;;;16.00;2.70;;;;;;;20.54;29.51;99739.14;25043;1316;3059218;-61
2022/09/08 11:46:07;;;;;;;5.50;2.40;;;;;;;20.78;29.19;99735.71;25020;1315;3050000;-62
2022/09/08 11:49:39;;;;;;;7.50;2.30;;;;;;;20.91;29.22;99740.84;25076;1315;3053843;-61
2022/09/08 11:52:34;;;;;;;7.10;2.70;;;;;;;20.82;29.17;99742.45;25057;1316;3054540;-61
2022/09/08 11:55:42;;;;;;;6.60;2.10;;;;;;;20.67;29.45;99739.65;25039;1316;3071309;-62
2022/09/08 11:58:53;;;;;;;11.40;3.10;;;;;;;20.59;29.89;99743.77;24900;1319;3051815;-62
2022/09/08 12:01:25;;;;;;;8.30;2.60;;;;;;;20.68;29.69;99741.83;24817;1322;3055114;-60
2022/09/08 12:04:05;;;;;;;10.20;2.30;;;;;;;20.80;29.61;99740.98;24989;1316;3026849;-61
2022/09/08 12:06:59;;;;;;;4.20;2.20;;;;;;;20.92;29.19;99739.80;25026;1318;3059535;-61
2022/09/08 12:09:34;;;;;;;8.00;2.00;;;;;;;21.00;28.98;99736.33;25030;1315;3052633;-62
2022/09/08 12:12:34;;;;;;;9.70;2.90;;;;;;;20.90;29.13;99740.45;25056;1315;3055834;-62
2022/09/08 12:15:13;;;;;;;12.00;2.60;;;;;;;20.65;29.91;99742.50;25039;1316;3054194;-61
2022/09/08 12:17:48;;;;;;;7.70;2.20;;;;;;;20.61;30.56;99747.36;24908;1316;3068533;-61
2022/09/08 12:20:27;;;;;;;6.30;2.90;;;;;;;20.72;30.80;99749.09;25927;1315;3049182;-62
2022/09/08 12:23:14;;;;;;;10.20;2.30;;;;;;;20.63;31.38;99742.52;25863;1316;3052710;-61
2022/09/08 12:26:03;;;;;;;6.80;2.10;;;;;;;20.95;30.76;99739.73;25928;1315;3052934;-61
2022/09/08 12:28:53;;;;;;;7.60;2.40;;;;;;;21.07;30.96;99740.27;25045;1315;3056518;-62
2022/09/08 12:31:41;;;;;;;5.60;2.10;;;;;;;21.08;31.65;99746.63;25114;1315;3050694;-61
2022/09/08 12:34:32;;;;;;;4.80;2.30;;;;;;;21.03;31.47;99751.89;25092;1315;3053790;-60
2022/09/08 12:37:14;;;;;;;8.50;3.00;;;;;;;20.91;32.08;99746.73;24999;1315;3054397;-61
2022/09/08 12:39:52;;;;;;;3.40;2.10;;;;;;;20.96;32.28;99745.45;24992;1316;3071706;-60
2022/09/08 12:42:49;;;;;;;5.20;1.90;;;;;;;21.09;32.11;99750.05;25022;1316;3053010;-60
2022/09/08 12:45:39;;;;;;;6.30;2.50;;;;;;;21.03;31.66;99747.71;25038;1316;3054810;-61
2022/09/08 12:48:57;;;;;;;3.40;2.10;;;;;;;21.17;31.86;99749.94;25085;1315;3052466;-62
2022/09/08 12:51:38;;;;;;;5.40;2.10;;;;;;;21.29;31.06;99743.30;24979;1316;3059148;-63
2022/09/08 12:54:18;;;;;;;7.00;2.20;;;;;;;21.28;30.69;99748.38;25074;1315;3049592;-63
2022/09/08 12:57:05;;;;;;;8.90;2.50;;;;;;;21.08;30.49;99750.39;25060;1316;3055782;-62
2022/09/08 13:00:06;;;;;;;4.00;2.10;;;;;;;21.27;30.28;99751.61;25021;1316;3054573;-60
2022/09/08 13:03:00;;;;;;;6.70;2.40;;;;;;;21.19;30.79;99744.99;25027;1315;3070778;-61
2022/09/08 13:05:32;;;;;;;5.10;2.30;;;;;;;21.25;30.50;99748.25;25092;1314;3051979;-63
2022/09/08 13:08:38;;;;;;;5.70;2.50;;;;;;;21.13;30.62;99753.79;25033;1316;3027178;-60
2022/09/08 13:11:12;;;;;;;5.30;2.40;;;;;;;20.73;31.18;99745.92;25108;1315;3052923;-61
2022/09/08 13:13:43;;;;;;;4.20;2.10;;;;;;;20.43;31.92;99752.80;25121;1316;3026711;-63
2022/09/08 13:16:33;;;;;;;13.10;3.10;;;;;;;20.39;31.66;99755.70;25069;1315;3026847;-61
2022/09/08 13:19:17;;;;;;;13.80;2.60;;;;;;;20.38;31.99;99748.53;25026;1315;3055985;-61
2022/09/08 13:22:15;;;;;;;8.90;2.60;;;;;;;20.32;32.01;99758.45;25063;1316;3054469;-61
2022/09/08 13:24:48;;;;;;;6.40;2.80;;;;;;;20.27;32.25;99752.79;25020;1316;3071694;-59
2022/09/08 13:27:26;;;;;;;7.80;2.80;;;;;;;20.27;32.34;99752.23;24976;1315;3026611;-62
2022/09/08 13:30:04;;;;;;;8.40;2.50;;;;;;;20.35;32.26;99757.85;25057;1316;3055060;-61
2022/09/08 13:32:38;;;;;;;15.70;2.50;;;;;;;20.37;31.64;99757.34;25154;1316;3052552;-62
2022/09/08 13:35:39;;;;;;;8.10;2.50;;;;;;;20.32;31.80;99752.42;25046;1316;3026470;-63
2022/09/08 13:38:47;;;;;;;7.30;3.20;;;;;;;20.23;32.12;99744.98;25061;1316;3052853;-63
2022/09/08 13:42:14;;;;;;;12.60;6.50;;;;;;;20.37;31.74;99745.56;25047;1315;3055964;-63
2022/09/08 13:44:48;;;;;;;9.20;2.90;;;;;;;20.29;31.97;99747.61;24879;1325;3052618;-60
2022/09/08 13:47:59;;;;;;;11.00;2.70;;;;;;;20.18;32.08;99745.11;24842;1324;3026126;-62
2022/09/08 13:50:37;;;;;;;6.00;2.50;;;;;;;20.11;32.23;99747.70;25050;1315;3053035;-60
2022/09/08 13:53:24;;;;;;;11.30;2.60;;;;;;;19.85;33.14;99749.62;25088;1315;3051268;-60
2022/09/08 13:56:08;;;;;;;4.60;2.50;;;;;;;19.77;33.57;99755.52;25092;1316;3068107;-63
2022/09/08 13:58:44;;;;;;;5.60;2.40;;;;;;;19.69;33.96;99752.91;25058;1316;3051292;-61
2022/09/08 14:01:28;;;;;;;7.70;2.50;;;;;;;19.63;34.35;99748.08;25074;1315;3054825;-60
2022/09/08 14:04:12;;;;;;;7.60;2.20;;;;;;;19.60;34.37;99748.04;25097;1316;3055033;-62
2022/09/08 14:07:20;;;;;;;10.10;3.00;;;;;;;19.53;34.53;99747.86;25082;1316;3059244;-64
2022/09/08 14:10:17;;;;;;;13.20;2.90;;;;;;;19.52;34.92;99754.65;25138;1316;3049752;-63
2022/09/08 14:13:12;;;;;;;12.20;4.30;;;;;;;19.41;35.27;99749.79;25031;1316;3056134;-62
2022/09/08 14:15:48;;;;;;;14.20;5.40;;;;;;;19.46;35.42;99747.02;25066;1316;3051633;-61
2022/09/08 14:18:30;;;;;;;9.50;3.80;;;;;;;19.35;35.85;99752.82;25077;1316;3026428;-61
2022/09/08 14:21:08;;;;;;;8.60;3.60;;;;;;;19.22;36.21;99750.13;25040;1315;3051728;-62
2022/09/08 14:23:46;;;;;;;7.50;3.10;;;;;;;19.20;36.41;99751.78;25069;1315;3055049;-60
2022/09/08 14:26:24;;;;;;;12.40;3.20;;;;;;;19.18;36.44;99749.06;25046;1315;3054799;-59
2022/09/08 14:28:54;;;;;;;7.20;2.80;;;;;;;19.13;37.13;99749.02;25054;1316;3059346;-62
2022/09/08 14:31:36;;;;;;;6.80;3.00;;;;;;;19.01;37.48;99752.42;25100;1316;3026525;-59
2022/09/08 14:34:26;;;;;;;8.00;2.80;;;;;;;18.96;37.60;99751.09;25015;1315;3056155;-60
2022/09/08 14:37:11;;;;;;;8.80;2.60;;;;;;;18.95;37.15;99753.98;25041;1316;3050927;-59
2022/09/08 14:40:12;;;;;;;5.80;2.50;;;;;;;18.75;37.87;99749.77;25050;1316;3071507;-62
2022/09/08 14:42:41;;;;;;;5.60;2.80;;;;;;;18.69;38.18;99751.75;25061;1315;3051887;-60
2022/09/08 14:45:58;;;;;;;7.30;2.70;;;;;;;18.63;38.30;99748.75;25077;1315;3026754;-61
2022/09/08 14:48:33;;;;;;;8.40;2.80;;;;;;;18.71;38.72;99746.74;24990;1321;3071736;-62
2022/09/08 14:51:22;;;;;;;10.60;3.00;;;;;;;18.66;38.78;99749.15;24913;1321;3052150;-60
2022/09/08 14:53:57;;;;;;;10.80;3.70;;;;;;;18.62;38.69;99748.27;25006;1315;3051460;-61
2022/09/08 14:56:30;;;;;;;12.50;3.20;;;;;;;18.63;39.10;99748.58;25027;1318;3053817;-62
2022/09/08 14:59:21;;;;;;;14.00;3.90;;;;;;;18.51;39.51;99748.03;25041;1315;3058107;-61
2022/09/08 15:01:52;;;;;;;11.20;3.30;;;;;;;18.51;39.67;99742.90;25073;1318;3051230;-62
2022/09/08 15:04:25;;;;;;;10.30;3.90;;;;;;;18.61;39.56;99742.19;24998;1316;3026889;-62
2022/09/08 15:07:00;;;;;;;19.90;3.50;;;;;;;18.64;39.15;99739.98;25103;1315;3026690;-62
2022/09/08 15:10:06;;;;;;;11.50;3.20;;;;;;;18.59;39.79;99739.30;25081;1315;3071463;-60
2022/09/08 15:13:01;;;;;;;12.90;3.40;;;;;;;18.58;40.02;99738.86;25113;1316;3049897;-61
2022/09/08 15:15:37;;;;;;;11.30;3.60;;;;;;;18.45;40.24;99732.26;25078;1316;3054736;-61
2022/09/08 15:18:16;;;;;;;7.20;2.60;;;;;;;18.47;39.90;99730.09;25076;1315;3053737;-60
2022/09/08 15:21:20;;;;;;;9.10;3.10;;;;;;;18.47;40.44;99725.70;25083;1315;3059215;-59
2022/09/08 15:23:51;;;;;;;7.70;3.00;;;;;;;18.39;40.84;99728.16;25046;1315;3053676;-60
2022/09/08 15:26:24;;;;;;;6.20;2.90;;;;;;;18.55;40.50;99729.72;25030;1315;3026374;-59
2022/09/08 15:29:40;;;;;;;10.80;3.00;;;;;;;18.69;40.07;99725.09;25048;1316;3026824;-59
2022/09/08 15:32:26;;;;;;;10.50;3.70;;;;;;;18.68;40.43;99725.37;25073;1315;3071772;-60
2022/09/08 15:35:14;;;;;;;6.70;2.90;;;;;;;18.65;40.20;99727.13;25035;1316;3051751;-61
2022/09/08 15:38:12;;;;;;;9.90;3.00;;;;;;;18.57;40.30;99729.40;25074;1316;3054163;-61
2022/09/08 15:40:44;;;;;;;15.80;3.30;;;;;;;18.39;40.76;99724.04;25053;1316;3055317;-62
2022/09/08 15:43:20;;;;;;;14.30;3.30;;;;;;;18.32;40.58;99722.77;25024;1316;3026300;-61
2022/09/08 15:45:49;;;;;;;13.30;3.50;;;;;;;18.31;40.44;99723.19;25072;1316;3048875;-63
2022/09/08 15:48:39;;;;;;;9.40;3.00;;;;;;;18.29;40.57;99722.14;25025;1315;3026339;-64
2022/09/08 15:51:25;;;;;;;8.10;3.30;;;;;;;18.16;40.46;99723.95;25103;1315;3051876;-62
2022/09/08 15:54:24;;;;;;;9.00;3.30;;;;;;;18.19;40.25;99718.92;25051;1318;3071169;-62
2022/09/08 15:56:59;;;;;;;11.00;3.10;;;;;;;18.18;40.65;99714.64;24986;1315;3051241;-62
2022/09/08 15:59:31;;;;;;;5.50;3.10;;;;;;;18.18;40.41;99716.33;25085;1315;3052712;-60
2022/09/08 16:02:01;;;;;;;14.70;3.50;;;;;;;18.12;40.47;99713.00;25085;1315;3026475;-63
2022/09/08 16:04:34;;;;;;;9.50;3.40;;;;;;;18.02;40.68;99715.45;25073;1315;3026409;-63